Time;durP1;ratioP1;P1;durP2;ratioP2;P2;SDS_P1;SDS_P2;PMS_P1;PMS_P2;Temp;Humidity;BMP_temperature;BMP_pressure;BME280_temperature;BME280_humidity;BME280_pressure;Samples;Min_cycle;Max_cycle;Signal;HPM_P1;HPM_P2
2022/12/14 00:02:08;;;;;;;16.03;10.13;;;;;;;;;;5000515;28;20200;-41
2022/12/14 00:04:34;;;;;;;16.55;9.48;;;;;;;;;;5002264;28;20415;-42
2022/12/14 00:07:00;;;;;;;18.27;10.77;;;;;;;;;;5009474;28;20204;-42
2022/12/14 00:09:26;;;;;;;20.47;10.30;;;;;;;;;;5005690;28;20510;-41
2022/12/14 00:11:52;;;;;;;15.53;10.10;;;;;;;;;;5000571;28;20979;-42
2022/12/14 00:14:18;;;;;;;18.43;10.23;;;;;;;;;;5001109;28;20431;-41
2022/12/14 00:16:44;;;;;;;14.80;9.60;;;;;;;;;;5002955;28;20482;-41
2022/12/14 00:19:10;;;;;;;18.85;10.38;;;;;;;;;;5005541;28;20430;-41
2022/12/14 00:21:36;;;;;;;17.38;11.82;;;;;;;;;;5003689;28;20177;-42
2022/12/14 00:24:02;;;;;;;16.57;10.50;;;;;;;;;;5006623;28;20173;-41
2022/12/14 00:26:30;;;;;;;17.17;11.50;;;;;;;;;;5003546;28;20431;-42
2022/12/14 00:28:56;;;;;;;28.80;11.85;;;;;;;;;;5004575;28;20183;-43
2022/12/14 00:31:22;;;;;;;18.07;10.27;;;;;;;;;;4999189;28;20185;-41
2022/12/14 00:33:51;;;;;;;20.75;10.43;;;;;;;;;;5003560;28;20503;-42
2022/12/14 00:36:18;;;;;;;17.58;11.75;;;;;;;;;;5004093;28;20246;-42
2022/12/14 00:38:44;;;;;;;18.60;11.85;;;;;;;;;;5002874;28;20180;-41
2022/12/14 00:41:10;;;;;;;18.83;11.15;;;;;;;;;;5003747;28;20176;-41
2022/12/14 00:43:36;;;;;;;20.67;12.27;;;;;;;;;;5003075;28;20696;-41
2022/12/14 00:46:02;;;;;;;16.42;10.18;;;;;;;;;;4997128;28;20196;-40
2022/12/14 00:48:29;;;;;;;16.77;10.63;;;;;;;;;;5004873;28;20211;-42
2022/12/14 00:50:55;;;;;;;14.85;9.60;;;;;;;;;;5001888;28;20169;-41
2022/12/14 00:53:22;;;;;;;13.85;9.70;;;;;;;;;;5002056;28;20192;-41
2022/12/14 00:55:48;;;;;;;14.55;9.98;;;;;;;;;;5002876;28;20257;-42
2022/12/14 00:58:16;;;;;;;18.83;12.27;;;;;;;;;;4992563;28;20200;-43
2022/12/14 01:00:43;;;;;;;13.95;10.70;;;;;;;;;;5003656;28;20178;-41
2022/12/14 01:03:10;;;;;;;16.48;10.75;;;;;;;;;;4998581;28;20169;-41
2022/12/14 01:05:36;;;;;;;14.75;9.68;;;;;;;;;;5004366;28;20188;-42
2022/12/14 01:08:02;;;;;;;13.25;9.52;;;;;;;;;;4997545;28;20172;-41
2022/12/14 01:10:28;;;;;;;22.45;11.10;;;;;;;;;;4999251;28;20169;-42
2022/12/14 01:12:54;;;;;;;27.40;10.95;;;;;;;;;;5001514;28;20295;-42
2022/12/14 01:15:20;;;;;;;12.87;7.97;;;;;;;;;;5001148;28;20189;-42
2022/12/14 01:17:46;;;;;;;14.83;8.57;;;;;;;;;;5002101;28;20503;-42
2022/12/14 01:20:13;;;;;;;12.97;8.40;;;;;;;;;;5002687;28;20420;-41
2022/12/14 01:22:39;;;;;;;11.40;8.55;;;;;;;;;;4996776;28;20412;-42
2022/12/14 01:25:05;;;;;;;13.50;9.37;;;;;;;;;;5002750;28;20225;-41
2022/12/14 01:27:31;;;;;;;13.07;8.77;;;;;;;;;;4995987;28;20416;-40
2022/12/14 01:29:57;;;;;;;17.87;8.33;;;;;;;;;;5002532;28;20183;-42
2022/12/14 01:32:23;;;;;;;13.77;9.80;;;;;;;;;;4999247;28;20478;-42
2022/12/14 01:34:50;;;;;;;18.70;9.67;;;;;;;;;;5001927;28;20412;-42
2022/12/14 01:37:16;;;;;;;16.67;11.07;;;;;;;;;;5001939;28;20468;-41
2022/12/14 01:39:42;;;;;;;14.05;8.82;;;;;;;;;;5002562;28;20165;-41
2022/12/14 01:42:11;;;;;;;14.20;8.03;;;;;;;;;;4995911;28;20176;-42
2022/12/14 01:44:37;;;;;;;12.18;8.18;;;;;;;;;;5007421;28;20414;-41
2022/12/14 01:47:13;;;;;;;14.32;8.38;;;;;;;;;;5000158;28;20192;-43
2022/12/14 01:49:45;;;;;;;16.58;8.88;;;;;;;;;;5001641;28;20256;-42
2022/12/14 01:52:11;;;;;;;11.85;8.80;;;;;;;;;;5004351;28;20187;-42
2022/12/14 01:54:40;;;;;;;16.58;9.50;;;;;;;;;;5000494;28;20165;-42
2022/12/14 01:57:06;;;;;;;14.50;8.18;;;;;;;;;;4992484;28;20201;-42
2022/12/14 01:59:35;;;;;;;16.65;7.75;;;;;;;;;;5000236;28;20181;-42
2022/12/14 02:02:02;;;;;;;18.48;8.40;;;;;;;;;;5004898;28;20191;-42
2022/12/14 02:04:28;;;;;;;12.27;8.90;;;;;;;;;;5002433;28;20174;-42
2022/12/14 02:06:54;;;;;;;15.05;8.80;;;;;;;;;;4997394;28;20243;-42
2022/12/14 02:09:24;;;;;;;13.32;8.77;;;;;;;;;;5001626;28;20224;-42
2022/12/14 02:12:01;;;;;;;12.38;8.75;;;;;;;;;;5001909;28;20203;-42
2022/12/14 02:14:28;;;;;;;13.02;8.70;;;;;;;;;;4992948;28;20188;-42
2022/12/14 02:16:55;;;;;;;15.00;9.20;;;;;;;;;;4972481;28;20209;-42
2022/12/14 02:19:21;;;;;;;11.98;7.38;;;;;;;;;;4990078;28;20177;-42
2022/12/14 02:22:06;;;;;;;9.37;7.97;;;;;;;;;;4990638;28;20185;-42
2022/12/14 02:24:43;;;;;;;13.55;8.70;;;;;;;;;;4991605;28;20399;-43
2022/12/14 02:27:09;;;;;;;12.23;8.88;;;;;;;;;;4989518;28;20234;-42
2022/12/14 02:29:54;;;;;;;9.50;7.00;;;;;;;;;;5003153;28;20596;-42
2022/12/14 02:32:20;;;;;;;11.15;7.88;;;;;;;;;;4994427;28;20467;-42
2022/12/14 02:34:49;;;;;;;40.03;11.67;;;;;;;;;;4999602;28;20177;-43
2022/12/14 02:37:35;;;;;;;11.68;7.85;;;;;;;;;;5005388;28;20486;-42
2022/12/14 02:40:23;;;;;;;12.82;8.05;;;;;;;;;;4998733;28;20184;-42
2022/12/14 02:43:08;;;;;;;10.70;7.65;;;;;;;;;;5001918;28;20272;-42
2022/12/14 02:45:34;;;;;;;16.02;9.75;;;;;;;;;;5008554;28;20204;-42
2022/12/14 02:48:02;;;;;;;13.02;9.00;;;;;;;;;;4995370;28;20224;-42
2022/12/14 02:50:28;;;;;;;13.50;9.32;;;;;;;;;;5000775;28;20739;-42
2022/12/14 02:53:00;;;;;;;15.30;8.23;;;;;;;;;;4980230;28;20185;-42
2022/12/14 02:55:38;;;;;;;13.70;8.10;;;;;;;;;;4991306;28;20428;-42
2022/12/14 02:58:20;;;;;;;9.32;7.43;;;;;;;;;;4993454;28;20199;-43
2022/12/14 03:00:47;;;;;;;13.43;7.18;;;;;;;;;;5001654;28;20621;-42
2022/12/14 03:03:13;;;;;;;8.73;7.88;;;;;;;;;;5011099;28;20204;-43
2022/12/14 03:05:39;;;;;;;11.77;7.30;;;;;;;;;;5003820;28;20291;-42
2022/12/14 03:08:08;;;;;;;9.33;5.80;;;;;;;;;;5006828;28;20474;-42
2022/12/14 03:10:40;;;;;;;8.88;6.32;;;;;;;;;;5004961;28;20912;-42
2022/12/14 03:13:19;;;;;;;9.48;6.05;;;;;;;;;;4999340;28;20195;-42
2022/12/14 03:15:47;;;;;;;6.80;5.88;;;;;;;;;;5006006;28;20283;-42
2022/12/14 03:18:14;;;;;;;6.82;5.10;;;;;;;;;;5001281;28;20215;-42
2022/12/14 03:20:41;;;;;;;6.20;5.38;;;;;;;;;;5005728;28;20215;-43
2022/12/14 03:23:08;;;;;;;8.63;6.00;;;;;;;;;;5005512;28;20199;-42
2022/12/14 03:28:44;;;;;;;5.15;4.65;;;;;;;;;;4999695;28;20268;-42
2022/12/14 03:31:13;;;;;;;7.15;5.90;;;;;;;;;;5002997;28;20509;-42
2022/12/14 03:33:42;;;;;;;7.75;6.00;;;;;;;;;;5003285;28;20161;-42
2022/12/14 03:36:15;;;;;;;9.20;5.75;;;;;;;;;;5006165;28;20191;-42
2022/12/14 03:38:42;;;;;;;9.20;5.80;;;;;;;;;;5004347;28;20550;-42
2022/12/14 03:41:14;;;;;;;7.22;5.47;;;;;;;;;;5006501;28;20205;-42
2022/12/14 03:43:59;;;;;;;6.82;4.93;;;;;;;;;;5005646;28;20658;-43
2022/12/14 03:46:52;;;;;;;7.75;5.57;;;;;;;;;;5000389;28;20294;-42
2022/12/14 03:49:23;;;;;;;7.47;6.00;;;;;;;;;;5006537;28;20216;-42
2022/12/14 03:51:54;;;;;;;6.68;5.45;;;;;;;;;;5003883;28;20176;-42
2022/12/14 03:54:20;;;;;;;9.32;6.10;;;;;;;;;;5005137;28;20180;-42
2022/12/14 03:56:53;;;;;;;9.77;5.80;;;;;;;;;;5000424;28;20219;-42
2022/12/14 03:59:22;;;;;;;6.88;6.22;;;;;;;;;;5001446;28;20651;-42
2022/12/14 04:01:54;;;;;;;10.45;6.45;;;;;;;;;;5004001;28;20173;-42
2022/12/14 04:04:28;;;;;;;7.95;6.88;;;;;;;;;;5005710;28;20214;-42
2022/12/14 04:07:16;;;;;;;7.70;5.80;;;;;;;;;;5003638;28;20205;-43
2022/12/14 04:09:46;;;;;;;7.35;6.00;;;;;;;;;;5000535;28;20527;-42
2022/12/14 04:20:38;;;;;;;8.52;6.20;;;;;;;;;;5001985;28;20196;-42
2022/12/14 04:23:11;;;;;;;7.78;5.45;;;;;;;;;;4998732;28;20204;-42
2022/12/14 04:31:12;;;;;;;7.97;5.57;;;;;;;;;;4991691;28;20190;-43
2022/12/14 04:33:46;;;;;;;7.82;5.47;;;;;;;;;;5004593;28;20195;-42
2022/12/14 04:36:14;;;;;;;10.93;6.30;;;;;;;;;;5003116;28;20328;-42
2022/12/14 04:38:41;;;;;;;10.98;6.60;;;;;;;;;;5000272;28;20208;-42
2022/12/14 04:41:09;;;;;;;12.20;6.57;;;;;;;;;;5002407;28;20164;-42
2022/12/14 04:43:38;;;;;;;11.23;7.28;;;;;;;;;;5001718;28;20177;-42
2022/12/14 04:46:05;;;;;;;10.63;6.90;;;;;;;;;;4993682;28;20846;-43
2022/12/14 04:48:31;;;;;;;11.50;7.03;;;;;;;;;;5001499;28;20188;-43
2022/12/14 04:51:03;;;;;;;9.93;6.70;;;;;;;;;;5006367;28;20255;-43
2022/12/14 04:53:30;;;;;;;9.10;6.47;;;;;;;;;;5005052;28;20416;-42
2022/12/14 04:56:03;;;;;;;9.80;6.00;;;;;;;;;;4999146;28;20240;-42
2022/12/14 04:58:30;;;;;;;7.93;6.88;;;;;;;;;;4998598;28;20264;-42
2022/12/14 05:01:14;;;;;;;8.95;7.15;;;;;;;;;;5003811;28;20180;-42
2022/12/14 05:03:50;;;;;;;8.80;6.30;;;;;;;;;;5002444;28;20725;-42
2022/12/14 05:06:23;;;;;;;12.65;7.05;;;;;;;;;;5003058;28;20191;-42
2022/12/14 05:08:58;;;;;;;10.65;6.25;;;;;;;;;;5003081;28;20169;-43
2022/12/14 05:11:29;;;;;;;14.88;6.82;;;;;;;;;;4996295;28;20634;-42
2022/12/14 05:13:56;;;;;;;10.70;7.43;;;;;;;;;;5002163;28;20212;-42
2022/12/14 05:16:23;;;;;;;9.70;6.90;;;;;;;;;;5000562;28;20724;-42
2022/12/14 05:18:50;;;;;;;11.73;6.90;;;;;;;;;;5006911;28;20175;-42
2022/12/14 05:24:01;;;;;;;10.93;7.18;;;;;;;;;;5004202;28;20227;-42
2022/12/14 05:26:28;;;;;;;7.78;6.53;;;;;;;;;;4998047;28;20196;-42
2022/12/14 05:28:54;;;;;;;12.90;7.22;;;;;;;;;;5003209;28;20173;-43
2022/12/14 05:31:20;;;;;;;10.35;7.03;;;;;;;;;;5004200;28;20217;-42
2022/12/14 05:33:46;;;;;;;7.30;5.70;;;;;;;;;;5000251;28;20181;-43
2022/12/14 05:36:12;;;;;;;7.30;6.00;;;;;;;;;;5006675;28;20259;-42
2022/12/14 05:38:38;;;;;;;6.93;5.78;;;;;;;;;;5003460;28;20595;-42
2022/12/14 05:41:05;;;;;;;10.70;8.23;;;;;;;;;;4997687;28;20176;-42
2022/12/14 05:43:31;;;;;;;9.57;7.10;;;;;;;;;;5004099;28;20839;-42
2022/12/14 05:46:00;;;;;;;6.70;5.40;;;;;;;;;;5002088;28;20200;-43
2022/12/14 05:48:26;;;;;;;10.75;6.10;;;;;;;;;;5001847;28;20454;-42
2022/12/14 05:50:52;;;;;;;7.40;5.70;;;;;;;;;;5002635;28;20231;-43
2022/12/14 05:53:18;;;;;;;6.50;5.90;;;;;;;;;;5001364;28;20177;-42
2022/12/14 05:55:48;;;;;;;6.22;5.63;;;;;;;;;;5001620;28;20875;-42
2022/12/14 05:58:14;;;;;;;8.40;5.47;;;;;;;;;;4999759;28;20216;-42
2022/12/14 06:00:39;;;;;;;10.47;6.00;;;;;;;;;;5005937;28;20554;-42
2022/12/14 06:03:06;;;;;;;8.07;6.47;;;;;;;;;;5000230;28;20762;-42
2022/12/14 06:05:32;;;;;;;9.20;5.60;;;;;;;;;;4989534;28;20448;-42
2022/12/14 06:07:58;;;;;;;9.32;5.60;;;;;;;;;;4994046;28;20259;-42
2022/12/14 06:10:24;;;;;;;8.27;5.70;;;;;;;;;;4996707;28;20228;-42
2022/12/14 06:12:50;;;;;;;10.93;6.53;;;;;;;;;;5001522;28;20224;-42
2022/12/14 06:15:16;;;;;;;8.10;6.10;;;;;;;;;;5002971;28;20431;-42
2022/12/14 06:17:45;;;;;;;8.20;6.07;;;;;;;;;;5000765;28;20247;-43
2022/12/14 06:20:12;;;;;;;6.85;5.72;;;;;;;;;;5002067;28;20956;-42
2022/12/14 06:22:38;;;;;;;9.13;5.78;;;;;;;;;;4998277;28;20256;-43
2022/12/14 06:25:04;;;;;;;10.93;7.00;;;;;;;;;;5003403;28;20208;-42
2022/12/14 06:27:30;;;;;;;10.68;6.28;;;;;;;;;;5003195;28;20164;-42
2022/12/14 06:29:56;;;;;;;8.30;6.30;;;;;;;;;;5000473;28;20685;-42
2022/12/14 06:32:24;;;;;;;10.20;6.43;;;;;;;;;;5001899;28;20436;-42
2022/12/14 06:34:50;;;;;;;8.50;6.43;;;;;;;;;;5010420;28;20662;-42
2022/12/14 06:37:16;;;;;;;8.80;6.45;;;;;;;;;;5003737;28;20685;-42
2022/12/14 06:39:42;;;;;;;9.60;6.20;;;;;;;;;;5004178;28;20172;-42
2022/12/14 06:42:08;;;;;;;8.03;6.57;;;;;;;;;;5003938;28;20749;-42
2022/12/14 06:44:34;;;;;;;9.82;7.03;;;;;;;;;;5008772;28;20416;-43
2022/12/14 06:47:00;;;;;;;6.10;5.50;;;;;;;;;;5002084;28;20230;-42
2022/12/14 06:49:26;;;;;;;9.73;7.17;;;;;;;;;;5002218;28;20415;-42
2022/12/14 06:51:52;;;;;;;11.70;6.82;;;;;;;;;;5003982;28;20442;-42
2022/12/14 06:54:18;;;;;;;11.77;6.60;;;;;;;;;;5003709;28;20173;-42
2022/12/14 06:56:45;;;;;;;8.13;6.60;;;;;;;;;;5004214;28;20997;-43
2022/12/14 06:59:12;;;;;;;8.32;6.63;;;;;;;;;;5007309;28;20181;-42
2022/12/14 07:01:38;;;;;;;9.20;6.63;;;;;;;;;;5006913;28;20172;-42
2022/12/14 07:04:05;;;;;;;9.50;6.18;;;;;;;;;;5001321;28;20181;-43
2022/12/14 07:06:33;;;;;;;9.30;6.55;;;;;;;;;;4999406;28;20201;-42
2022/12/14 07:08:59;;;;;;;10.15;6.80;;;;;;;;;;5006434;28;20181;-42
2022/12/14 07:11:26;;;;;;;10.98;7.78;;;;;;;;;;5005261;28;20174;-42
2022/12/14 07:13:52;;;;;;;12.73;8.40;;;;;;;;;;5006027;28;20627;-42
2022/12/14 07:16:20;;;;;;;11.55;7.90;;;;;;;;;;5003891;28;20243;-42
2022/12/14 07:18:46;;;;;;;14.07;6.95;;;;;;;;;;5005404;28;20271;-42
2022/12/14 07:21:13;;;;;;;9.38;7.00;;;;;;;;;;5000561;28;20180;-42
2022/12/14 07:23:40;;;;;;;12.50;6.93;;;;;;;;;;5005881;28;20179;-42
2022/12/14 07:26:08;;;;;;;9.02;6.90;;;;;;;;;;5004146;28;20246;-42
2022/12/14 07:28:37;;;;;;;16.60;9.00;;;;;;;;;;5002202;28;20185;-42
2022/12/14 07:31:04;;;;;;;9.88;6.82;;;;;;;;;;4995132;28;20183;-42
2022/12/14 07:33:30;;;;;;;26.10;13.68;;;;;;;;;;5002994;28;20554;-42
2022/12/14 07:36:06;;;;;;;15.77;9.00;;;;;;;;;;5001892;28;20208;-43
2022/12/14 07:38:33;;;;;;;17.15;8.75;;;;;;;;;;5002717;28;20463;-42
2022/12/14 07:41:03;;;;;;;15.73;8.90;;;;;;;;;;5008119;28;20176;-42
2022/12/14 07:43:29;;;;;;;11.23;8.35;;;;;;;;;;5004923;28;20172;-42
2022/12/14 07:45:58;;;;;;;8.70;6.83;;;;;;;;;;4999881;28;20197;-42
2022/12/14 07:48:24;;;;;;;8.05;6.35;;;;;;;;;;4999899;28;20413;-43
2022/12/14 07:50:50;;;;;;;14.53;7.10;;;;;;;;;;5005520;28;20191;-43
2022/12/14 07:53:16;;;;;;;11.70;6.80;;;;;;;;;;5006067;28;20411;-42
2022/12/14 07:55:42;;;;;;;9.60;6.80;;;;;;;;;;5001769;28;20451;-42
2022/12/14 07:58:08;;;;;;;14.33;7.07;;;;;;;;;;5004308;28;20478;-42
2022/12/14 08:00:34;;;;;;;16.03;8.40;;;;;;;;;;5001610;28;20422;-41
2022/12/14 08:03:00;;;;;;;12.47;8.20;;;;;;;;;;5005659;28;20469;-41
2022/12/14 08:05:26;;;;;;;9.30;7.20;;;;;;;;;;4999033;28;20428;-41
2022/12/14 08:07:52;;;;;;;10.90;6.40;;;;;;;;;;5004084;28;20495;-42
2022/12/14 08:10:18;;;;;;;14.83;7.10;;;;;;;;;;5000301;28;20514;-43
2022/12/14 08:12:44;;;;;;;22.70;12.70;;;;;;;;;;5003564;28;20418;-41
2022/12/14 08:15:10;;;;;;;23.90;10.45;;;;;;;;;;5000983;28;20436;-40
2022/12/14 08:17:36;;;;;;;11.43;8.13;;;;;;;;;;5002554;28;20204;-42
2022/12/14 08:20:02;;;;;;;9.53;7.30;;;;;;;;;;5001947;28;20400;-42
2022/12/14 08:22:28;;;;;;;9.23;7.07;;;;;;;;;;5006746;28;20407;-42
2022/12/14 08:24:54;;;;;;;13.00;8.55;;;;;;;;;;4999908;28;20427;-41
2022/12/14 08:27:20;;;;;;;13.33;8.30;;;;;;;;;;5001770;28;20177;-41
2022/12/14 08:29:46;;;;;;;14.07;8.00;;;;;;;;;;5002584;28;20417;-41
2022/12/14 08:32:12;;;;;;;15.93;7.57;;;;;;;;;;5002126;28;20408;-42
2022/12/14 08:34:38;;;;;;;18.30;10.60;;;;;;;;;;5002037;28;20184;-41
2022/12/14 08:37:04;;;;;;;19.87;8.50;;;;;;;;;;5002496;28;20517;-42
2022/12/14 08:39:30;;;;;;;11.70;7.40;;;;;;;;;;5005131;28;20407;-41
2022/12/14 08:41:56;;;;;;;20.67;9.50;;;;;;;;;;4999310;28;20407;-43
2022/12/14 08:44:22;;;;;;;11.38;8.15;;;;;;;;;;4999476;28;20412;-42
2022/12/14 08:46:48;;;;;;;12.30;7.50;;;;;;;;;;5004653;28;20203;-42
2022/12/14 08:49:14;;;;;;;21.30;9.50;;;;;;;;;;5005039;28;20824;-42
2022/12/14 08:51:40;;;;;;;16.10;8.38;;;;;;;;;;5004500;28;20404;-43
2022/12/14 08:54:06;;;;;;;16.27;9.40;;;;;;;;;;5001242;28;20236;-42
2022/12/14 08:56:33;;;;;;;14.05;8.68;;;;;;;;;;5001940;28;20601;-42
2022/12/14 08:58:59;;;;;;;12.90;8.20;;;;;;;;;;5004407;28;20179;-41
2022/12/14 09:01:26;;;;;;;15.93;8.18;;;;;;;;;;5003989;28;20251;-41
2022/12/14 09:03:54;;;;;;;26.13;9.27;;;;;;;;;;5003750;28;20623;-41
2022/12/14 09:06:22;;;;;;;13.35;8.68;;;;;;;;;;5004056;28;20200;-42
2022/12/14 09:08:49;;;;;;;12.25;7.43;;;;;;;;;;5002460;28;20180;-42
2022/12/14 09:11:16;;;;;;;13.93;7.85;;;;;;;;;;4999836;28;20650;-41
2022/12/14 09:13:42;;;;;;;13.27;7.32;;;;;;;;;;5003557;28;20181;-41
2022/12/14 09:16:13;;;;;;;20.77;9.60;;;;;;;;;;5001073;28;20188;-42
2022/12/14 09:18:39;;;;;;;16.83;9.77;;;;;;;;;;5000845;28;20302;-42
2022/12/14 09:21:05;;;;;;;20.05;9.30;;;;;;;;;;5003087;28;20506;-42
2022/12/14 09:23:32;;;;;;;17.50;9.32;;;;;;;;;;5000802;28;20647;-42
2022/12/14 09:25:58;;;;;;;19.63;8.80;;;;;;;;;;5001494;28;20208;-41
2022/12/14 09:28:25;;;;;;;17.75;8.40;;;;;;;;;;5005441;28;20173;-41
2022/12/14 09:30:55;;;;;;;21.52;9.18;;;;;;;;;;5006211;28;20570;-41
2022/12/14 09:33:21;;;;;;;16.88;10.05;;;;;;;;;;5004178;28;20179;-41
2022/12/14 09:35:47;;;;;;;17.80;9.10;;;;;;;;;;4998555;28;20214;-41
2022/12/14 09:38:13;;;;;;;16.65;10.85;;;;;;;;;;5000078;28;20567;-42
2022/12/14 09:40:42;;;;;;;11.98;8.10;;;;;;;;;;5001011;28;20173;-41
2022/12/14 09:43:09;;;;;;;14.55;9.00;;;;;;;;;;5004256;28;20215;-41
2022/12/14 09:45:44;;;;;;;12.32;7.55;;;;;;;;;;5001854;28;20207;-43
2022/12/14 09:48:17;;;;;;;31.95;10.40;;;;;;;;;;5003584;28;20176;-42
2022/12/14 09:50:46;;;;;;;13.52;8.50;;;;;;;;;;5002593;28;20185;-42
2022/12/14 09:53:13;;;;;;;16.23;8.50;;;;;;;;;;5003751;28;20173;-42
2022/12/14 09:55:47;;;;;;;19.98;9.98;;;;;;;;;;5001448;28;20235;-42
2022/12/14 09:58:21;;;;;;;17.45;9.35;;;;;;;;;;5003419;28;20207;-42
2022/12/14 10:00:57;;;;;;;17.50;9.48;;;;;;;;;;5000073;28;20200;-41
2022/12/14 10:03:42;;;;;;;12.95;8.68;;;;;;;;;;5000434;28;20181;-42
2022/12/14 10:06:26;;;;;;;22.98;9.05;;;;;;;;;;4993011;28;20203;-42
2022/12/14 10:09:02;;;;;;;21.50;10.63;;;;;;;;;;5002543;28;20173;-42
2022/12/14 10:11:34;;;;;;;14.57;8.98;;;;;;;;;;4998150;28;20183;-42
2022/12/14 10:14:03;;;;;;;15.50;9.07;;;;;;;;;;4992243;28;20256;-43
2022/12/14 10:16:48;;;;;;;12.55;8.55;;;;;;;;;;4991596;28;20200;-41
2022/12/14 10:19:20;;;;;;;15.77;9.45;;;;;;;;;;4991600;28;20196;-41
2022/12/14 10:21:53;;;;;;;16.30;9.60;;;;;;;;;;4991620;28;20677;-41
2022/12/14 10:24:22;;;;;;;17.88;10.10;;;;;;;;;;4991602;28;20196;-42
2022/12/14 10:26:50;;;;;;;17.15;10.50;;;;;;;;;;4999471;28;20201;-42
2022/12/14 10:29:40;;;;;;;17.77;9.10;;;;;;;;;;5003112;28;20198;-41
2022/12/14 10:32:21;;;;;;;24.42;9.88;;;;;;;;;;4988692;28;20223;-42
2022/12/14 10:34:48;;;;;;;16.48;10.30;;;;;;;;;;4996704;28;20589;-41
2022/12/14 10:37:14;;;;;;;19.25;9.95;;;;;;;;;;4997709;28;20207;-41
2022/12/14 10:39:41;;;;;;;18.80;9.98;;;;;;;;;;5000237;28;20599;-43
2022/12/14 10:42:30;;;;;;;17.63;11.25;;;;;;;;;;5003000;28;20165;-41
2022/12/14 10:44:56;;;;;;;16.33;10.65;;;;;;;;;;5003764;28;20215;-41
2022/12/14 10:47:31;;;;;;;16.13;9.52;;;;;;;;;;4998851;28;20181;-43
2022/12/14 10:50:01;;;;;;;17.83;9.73;;;;;;;;;;4999882;28;20172;-42
2022/12/14 10:52:33;;;;;;;14.75;9.63;;;;;;;;;;4998520;28;20189;-42
2022/12/14 10:55:01;;;;;;;17.13;9.73;;;;;;;;;;5014495;28;20646;-41
2022/12/14 10:57:27;;;;;;;16.75;9.90;;;;;;;;;;4999464;28;20203;-41
2022/12/14 10:59:54;;;;;;;15.80;9.43;;;;;;;;;;4998105;28;20185;-42
2022/12/14 11:02:28;;;;;;;19.55;9.40;;;;;;;;;;4998446;28;20212;-41
2022/12/14 11:04:57;;;;;;;15.63;10.32;;;;;;;;;;4999472;28;20173;-42
2022/12/14 11:07:25;;;;;;;17.70;10.85;;;;;;;;;;4999395;28;20180;-41
2022/12/14 11:09:53;;;;;;;14.85;10.20;;;;;;;;;;5000676;28;20177;-41
2022/12/14 11:12:19;;;;;;;20.60;9.85;;;;;;;;;;5001900;28;20725;-41
2022/12/14 11:14:51;;;;;;;18.05;9.43;;;;;;;;;;5001412;28;20181;-41
2022/12/14 11:17:30;;;;;;;20.00;10.77;;;;;;;;;;4989316;28;20200;-42
2022/12/14 11:20:08;;;;;;;18.92;9.55;;;;;;;;;;4993073;28;20295;-41
2022/12/14 11:22:45;;;;;;;21.70;10.65;;;;;;;;;;4993824;28;20209;-41
2022/12/14 11:25:30;;;;;;;18.23;9.88;;;;;;;;;;4995657;28;20240;-42
2022/12/14 11:28:16;;;;;;;19.73;10.75;;;;;;;;;;4995048;28;20226;-43
2022/12/14 11:30:58;;;;;;;19.55;9.93;;;;;;;;;;4991673;28;20235;-41
2022/12/14 11:33:27;;;;;;;22.75;12.05;;;;;;;;;;4995364;28;20316;-43
2022/12/14 11:35:53;;;;;;;17.00;10.52;;;;;;;;;;4992716;28;20207;-41
2022/12/14 11:38:19;;;;;;;15.07;9.75;;;;;;;;;;4995189;28;20228;-42
2022/12/14 11:40:47;;;;;;;20.30;10.82;;;;;;;;;;4994883;28;20161;-42
2022/12/14 11:43:22;;;;;;;21.08;10.23;;;;;;;;;;4994456;28;20173;-42
2022/12/14 11:45:53;;;;;;;14.77;9.98;;;;;;;;;;4997839;28;20223;-42
2022/12/14 11:48:21;;;;;;;25.30;10.73;;;;;;;;;;5002189;28;20176;-42
2022/12/14 11:50:48;;;;;;;20.25;9.82;;;;;;;;;;5004992;28;20724;-43
2022/12/14 11:53:16;;;;;;;20.20;10.45;;;;;;;;;;5000216;28;20177;-41
2022/12/14 11:55:47;;;;;;;24.88;9.75;;;;;;;;;;5003629;28;20212;-41
2022/12/14 11:58:25;;;;;;;18.60;9.73;;;;;;;;;;4997664;28;20236;-42
2022/12/14 12:00:57;;;;;;;19.55;10.57;;;;;;;;;;4993292;28;20184;-43
2022/12/14 12:03:24;;;;;;;17.98;11.13;;;;;;;;;;4992485;28;20176;-40
2022/12/14 12:05:51;;;;;;;19.65;10.48;;;;;;;;;;4999085;28;20575;-43
2022/12/14 12:08:25;;;;;;;16.52;10.80;;;;;;;;;;5006878;28;20263;-42
2022/12/14 12:10:52;;;;;;;20.52;10.00;;;;;;;;;;5003468;28;20191;-41
2022/12/14 12:13:40;;;;;;;15.13;9.85;;;;;;;;;;5002789;28;20189;-43
2022/12/14 12:16:13;;;;;;;16.38;10.98;;;;;;;;;;4995091;28;20305;-42
2022/12/14 12:18:42;;;;;;;21.77;11.05;;;;;;;;;;5002058;28;20201;-43
2022/12/14 12:21:12;;;;;;;19.33;9.38;;;;;;;;;;5013189;28;20223;-42
2022/12/14 12:23:43;;;;;;;19.20;10.77;;;;;;;;;;5002510;28;20227;-42
2022/12/14 12:26:16;;;;;;;18.38;10.18;;;;;;;;;;5003683;28;20181;-42
2022/12/14 12:28:45;;;;;;;15.15;8.45;;;;;;;;;;5003027;28;20177;-42
2022/12/14 12:31:16;;;;;;;15.55;9.35;;;;;;;;;;5001935;28;20264;-43
2022/12/14 12:34:01;;;;;;;14.95;9.77;;;;;;;;;;5002211;28;20173;-42
2022/12/14 12:36:29;;;;;;;16.52;8.48;;;;;;;;;;4999542;28;20218;-42
2022/12/14 12:39:01;;;;;;;13.65;8.38;;;;;;;;;;5004707;28;20176;-42
2022/12/14 12:41:28;;;;;;;12.38;7.63;;;;;;;;;;5002166;28;20259;-42
2022/12/14 12:43:58;;;;;;;8.70;6.65;;;;;;;;;;5002931;28;20176;-42
2022/12/14 12:46:29;;;;;;;11.18;7.30;;;;;;;;;;5004511;28;20841;-42
2022/12/14 12:49:06;;;;;;;14.73;7.88;;;;;;;;;;5004298;28;20283;-43
2022/12/14 12:51:39;;;;;;;10.65;7.35;;;;;;;;;;5001062;28;20177;-42
2022/12/14 12:54:08;;;;;;;10.95;7.45;;;;;;;;;;4994043;28;20204;-42
2022/12/14 12:56:46;;;;;;;13.02;8.70;;;;;;;;;;5008964;28;20257;-42
2022/12/14 12:59:35;;;;;;;11.40;7.80;;;;;;;;;;4994919;28;20204;-43
2022/12/14 13:02:07;;;;;;;18.02;8.30;;;;;;;;;;5002921;28;20181;-42
2022/12/14 13:04:36;;;;;;;13.35;8.75;;;;;;;;;;5001257;28;20177;-42
2022/12/14 13:07:04;;;;;;;10.98;7.93;;;;;;;;;;4997313;28;20295;-43
2022/12/14 13:09:43;;;;;;;14.40;7.78;;;;;;;;;;5002711;28;20549;-43
2022/12/14 13:12:22;;;;;;;13.07;8.40;;;;;;;;;;4988157;28;20181;-43
2022/12/14 13:14:49;;;;;;;11.95;8.05;;;;;;;;;;5008137;28;20187;-43
2022/12/14 13:17:38;;;;;;;12.93;7.53;;;;;;;;;;4999084;28;20200;-42
2022/12/14 13:20:18;;;;;;;10.85;8.27;;;;;;;;;;4997699;28;20181;-42
2022/12/14 13:22:45;;;;;;;21.08;9.95;;;;;;;;;;4997359;28;20177;-43
2022/12/14 13:25:14;;;;;;;12.07;7.68;;;;;;;;;;5000308;28;20609;-42
2022/12/14 13:27:57;;;;;;;17.23;10.07;;;;;;;;;;5001244;28;20606;-43
2022/12/14 13:30:34;;;;;;;18.25;8.35;;;;;;;;;;5003341;28;20164;-42
2022/12/14 13:33:00;;;;;;;10.93;6.90;;;;;;;;;;5004000;28;20668;-42
2022/12/14 13:35:26;;;;;;;13.65;7.75;;;;;;;;;;5001030;28;20577;-42
2022/12/14 13:38:01;;;;;;;16.50;8.95;;;;;;;;;;4998839;28;20204;-42
2022/12/14 13:40:34;;;;;;;13.88;8.40;;;;;;;;;;5004094;28;20210;-43
2022/12/14 13:43:06;;;;;;;16.15;9.40;;;;;;;;;;4997628;28;20188;-42
2022/12/14 13:45:38;;;;;;;14.13;8.75;;;;;;;;;;4994813;28;20275;-43
2022/12/14 13:48:16;;;;;;;14.60;9.25;;;;;;;;;;4992279;28;20338;-42
2022/12/14 13:50:42;;;;;;;15.23;8.55;;;;;;;;;;4993291;28;20259;-43
2022/12/14 13:53:14;;;;;;;14.63;9.30;;;;;;;;;;4992246;28;20187;-42
2022/12/14 13:55:50;;;;;;;13.85;8.73;;;;;;;;;;4991809;28;20205;-42
2022/12/14 13:58:19;;;;;;;15.43;10.65;;;;;;;;;;4991704;28;20231;-43
2022/12/14 14:00:46;;;;;;;13.18;7.20;;;;;;;;;;4975388;28;20228;-42
2022/12/14 14:03:32;;;;;;;13.07;9.05;;;;;;;;;;5003043;28;20534;-42
2022/12/14 14:06:00;;;;;;;14.90;8.73;;;;;;;;;;5002504;28;20220;-43
2022/12/14 14:08:28;;;;;;;12.88;8.52;;;;;;;;;;4999569;28;20172;-43
2022/12/14 14:10:54;;;;;;;13.70;9.60;;;;;;;;;;5003090;28;20181;-42
2022/12/14 14:13:29;;;;;;;12.05;8.70;;;;;;;;;;5003400;28;20180;-43
2022/12/14 14:15:56;;;;;;;15.45;8.85;;;;;;;;;;4999345;28;20569;-43
2022/12/14 14:18:26;;;;;;;14.45;9.65;;;;;;;;;;4994541;28;20217;-44
2022/12/14 14:21:10;;;;;;;11.85;8.55;;;;;;;;;;4990921;28;20176;-44
2022/12/14 14:23:37;;;;;;;20.02;8.82;;;;;;;;;;4993680;28;20331;-42
2022/12/14 14:26:32;;;;;;;12.27;8.73;;;;;;;;;;4991407;28;20222;-43
2022/12/14 14:29:10;;;;;;;14.80;8.95;;;;;;;;;;4993796;28;20605;-43
2022/12/14 14:31:47;;;;;;;12.82;9.00;;;;;;;;;;4996477;28;20180;-44
2022/12/14 14:34:16;;;;;;;11.77;9.02;;;;;;;;;;4988090;28;20932;-43
2022/12/14 14:36:44;;;;;;;12.32;8.18;;;;;;;;;;4988565;28;20690;-43
2022/12/14 14:39:28;;;;;;;14.00;7.82;;;;;;;;;;4991588;28;20188;-43
2022/12/14 14:41:55;;;;;;;25.98;12.50;;;;;;;;;;5005218;28;20190;-42
2022/12/14 14:44:24;;;;;;;15.93;8.85;;;;;;;;;;4994135;28;20180;-43
2022/12/14 14:46:50;;;;;;;12.27;8.25;;;;;;;;;;4991524;28;20212;-43
2022/12/14 14:49:24;;;;;;;10.97;8.20;;;;;;;;;;4991665;28;20178;-42
2022/12/14 14:51:50;;;;;;;17.15;8.57;;;;;;;;;;4993487;28;20989;-43
2022/12/14 14:54:16;;;;;;;17.67;8.77;;;;;;;;;;5006837;28;20260;-42
2022/12/14 14:56:43;;;;;;;15.27;9.90;;;;;;;;;;5003841;28;20470;-43
2022/12/14 14:59:18;;;;;;;11.20;9.02;;;;;;;;;;4991578;28;20177;-42
2022/12/14 15:01:45;;;;;;;15.38;9.70;;;;;;;;;;4994392;28;20180;-42
2022/12/14 15:04:21;;;;;;;16.52;8.30;;;;;;;;;;4997245;28;20183;-42
2022/12/14 15:06:53;;;;;;;17.35;9.20;;;;;;;;;;4998706;28;20196;-43